Time;durP1;ratioP1;P1;durP2;ratioP2;P2;SDS_P1;SDS_P2;PMS_P1;PMS_P2;Temp;Humidity;BMP_temperature;BMP_pressure;BME280_temperature;BME280_humidity;BME280_pressure;Samples;Min_cycle;Max_cycle;Signal;HPM_P1;HPM_P2
2023/10/09 00:01:46;;;;;;;18.55;5.47;;;16.40;54.20;;;18.20;42.83;98217.09;5033203;28;20050;-47
2023/10/09 00:04:15;;;;;;;21.02;5.63;;;16.60;53.30;;;18.32;42.64;98219.25;5032800;28;20236;-48
2023/10/09 00:06:44;;;;;;;22.98;6.70;;;16.80;52.70;;;18.42;42.45;98223.28;5031917;28;20045;-43
2023/10/09 00:12:00;;;;;;;12.85;4.97;;;17.20;51.60;;;18.64;42.12;98218.63;5032788;28;20049;-44
2023/10/09 00:14:33;;;;;;;16.25;5.45;;;17.30;51.10;;;18.73;42.04;98215.78;5033040;28;20050;-46
2023/10/09 00:19:37;;;;;;;15.65;4.15;;;17.50;50.80;;;18.88;41.53;98211.09;5032926;28;20041;-43
2023/10/09 00:22:10;;;;;;;21.95;5.10;;;17.50;51.50;;;18.91;41.76;98210.72;5032751;28;20037;-48
2023/10/09 00:24:45;;;;;;;16.92;6.28;;;17.50;51.00;;;18.96;41.76;98213.66;5032664;28;20052;-44
2023/10/09 00:27:18;;;;;;;17.60;4.88;;;17.50;50.90;;;19.00;41.53;98208.66;5032462;28;20041;-44
2023/10/09 00:29:46;;;;;;;19.77;4.82;;;17.60;50.70;;;19.03;41.68;98208.28;5032693;28;20045;-45
2023/10/09 00:32:16;;;;;;;17.38;5.32;;;17.60;50.80;;;19.04;41.70;98204.56;5031488;28;20049;-45
2023/10/09 00:34:43;;;;;;;17.80;5.95;;;17.50;51.20;;;19.05;41.61;98200.81;5031158;28;20049;-45
2023/10/09 00:37:22;;;;;;;11.82;4.22;;;17.50;51.00;;;19.05;41.63;98198.09;5030836;28;20401;-45
2023/10/09 00:39:56;;;;;;;16.58;5.82;;;17.50;51.10;;;19.05;41.63;98196.22;5031742;28;20049;-43
2023/10/09 00:42:48;;;;;;;23.75;5.72;;;17.50;51.20;;;19.07;41.56;98196.03;5031086;28;20045;-45
2023/10/09 00:45:25;;;;;;;14.13;4.97;;;17.50;51.20;;;19.06;41.63;98192.50;5030812;28;20060;-46
2023/10/09 00:47:58;;;;;;;15.73;4.72;;;17.50;51.40;;;19.07;41.55;98188.75;5031996;28;20049;-45
2023/10/09 00:50:26;;;;;;;14.98;5.03;;;17.50;51.30;;;19.07;41.24;98188.75;5030803;28;20045;-47
2023/10/09 00:53:02;;;;;;;15.23;5.45;;;17.50;50.80;;;19.06;41.42;98183.59;5031158;28;20398;-44
2023/10/09 00:56:18;;;;;;;17.65;5.50;;;17.50;51.00;;;19.05;41.48;98188.13;5030981;28;20060;-46
2023/10/09 00:58:30;;;;;;;16.75;4.63;;;17.50;51.30;;;19.04;41.56;98186.50;5012988;28;20049;-44
2023/10/09 01:00:59;;;;;;;12.55;5.15;;;17.40;51.20;;;19.01;41.60;98189.59;5024253;28;20417;-43
2023/10/09 01:03:27;;;;;;;18.88;4.88;;;17.40;51.70;;;18.99;41.52;98188.13;5030605;28;20489;-46
2023/10/09 01:11:29;;;;;;;15.05;5.32;;;17.20;52.50;;;18.85;42.35;98182.69;5030905;28;20085;-45
2023/10/09 01:14:11;;;;;;;18.52;5.90;;;17.10;53.90;;;18.77;42.59;98173.91;5031868;28;20045;-46
2023/10/09 01:16:41;;;;;;;15.65;5.43;;;16.90;54.30;;;18.68;43.00;98181.31;5031339;28;20089;-45
2023/10/09 01:19:14;;;;;;;15.70;5.63;;;16.80;54.90;;;18.63;43.30;98175.69;5030632;28;20497;-43
2023/10/09 01:21:42;;;;;;;14.57;5.13;;;16.80;55.30;;;18.59;43.49;98169.88;5030464;28;20405;-44
2023/10/09 01:24:10;;;;;;;22.02;6.68;;;16.80;55.90;;;18.56;43.72;98177.53;5030341;28;20522;-43
2023/10/09 01:26:49;;;;;;;14.68;6.22;;;16.70;56.40;;;18.52;44.01;98177.09;5029229;28;20053;-44
2023/10/09 01:29:20;;;;;;;14.90;4.70;;;16.70;56.80;;;18.48;44.12;98178.53;5030584;28;20045;-43
2023/10/09 01:31:52;;;;;;;17.17;5.72;;;16.60;57.50;;;18.44;44.27;98172.69;5030262;28;20048;-47
2023/10/09 01:34:44;;;;;;;10.90;5.72;;;16.60;57.80;;;18.40;44.57;98170.63;5029588;28;20061;-46
2023/10/09 01:37:18;;;;;;;10.50;5.03;;;16.50;59.50;;;18.37;44.95;98171.00;5024493;28;20045;-45
2023/10/09 01:39:48;;;;;;;13.10;4.93;;;16.40;58.70;;;18.33;44.99;98169.72;5030076;28;20045;-44
2023/10/09 01:42:34;;;;;;;12.23;5.82;;;16.50;58.90;;;18.28;45.18;98171.16;5029866;28;20053;-43
2023/10/09 01:45:11;;;;;;;12.35;5.10;;;16.40;59.10;;;18.24;45.28;98167.19;5022452;28;20064;-46
2023/10/09 01:47:39;;;;;;;10.63;5.13;;;16.40;59.30;;;18.22;45.21;98163.88;5029343;28;20065;-47
2023/10/09 01:50:22;;;;;;;13.35;5.15;;;16.40;59.20;;;18.21;45.37;98155.97;5030090;28;20049;-42
2023/10/09 01:52:51;;;;;;;8.80;4.53;;;16.30;59.50;;;18.18;45.56;98154.50;5029786;28;20048;-45
2023/10/09 01:58:05;;;;;;;14.93;4.80;;;16.30;58.80;;;18.17;44.65;98143.94;5028994;28;20066;-47
2023/10/09 02:00:35;;;;;;;9.98;4.03;;;16.40;57.30;;;18.20;44.17;98133.56;5029895;28;20076;-43
2023/10/09 02:03:05;;;;;;;12.73;5.22;;;16.50;56.20;;;18.25;43.94;98133.81;5029589;28;20060;-45
2023/10/09 02:05:35;;;;;;;12.98;4.88;;;16.70;55.20;;;18.34;43.69;98128.25;5029744;28;20057;-46
2023/10/09 02:08:05;;;;;;;15.27;4.55;;;16.80;54.40;;;18.41;43.54;98131.81;5030805;28;20042;-43
2023/10/09 02:10:33;;;;;;;13.18;4.93;;;16.90;54.00;;;18.48;43.20;98135.41;5031006;28;20057;-43
2023/10/09 02:13:10;;;;;;;20.67;5.50;;;17.00;53.50;;;18.54;43.18;98126.50;5029393;28;20037;-43
2023/10/09 02:15:40;;;;;;;16.88;5.13;;;17.10;53.10;;;18.58;43.08;98130.47;5029509;28;20049;-43
2023/10/09 02:18:18;;;;;;;20.30;4.82;;;17.00;53.30;;;18.63;43.13;98136.09;5028996;28;20046;-45
2023/10/09 02:21:12;;;;;;;12.98;4.22;;;17.00;53.50;;;18.65;43.23;98125.94;5030798;28;20045;-44
2023/10/09 02:23:49;;;;;;;;;;;17.10;53.50;;;18.65;42.93;98122.38;5031036;28;20113;-44
2023/10/09 02:26:25;;;;;;;12.15;4.85;;;17.00;53.00;;;18.69;42.72;98120.97;5030744;28;19921;-42
2023/10/09 02:29:04;;;;;;;10.93;4.50;;;17.00;53.40;;;18.69;42.88;98135.28;5029276;28;20053;-44
2023/10/09 02:31:41;;;;;;;16.17;5.15;;;17.00;53.60;;;18.68;42.76;98132.78;5029247;28;20046;-49
2023/10/09 02:34:12;;;;;;;11.55;4.35;;;17.00;53.50;;;18.66;42.96;98132.16;5021543;28;20120;-47
2023/10/09 02:36:48;;;;;;;14.98;4.38;;;17.00;53.90;;;18.64;42.98;98134.22;5029248;28;20061;-45
2023/10/09 02:39:30;;;;;;;13.82;4.68;;;16.90;54.20;;;18.63;43.03;98135.25;5030615;28;20037;-43
2023/10/09 02:42:08;;;;;;;14.82;4.78;;;16.90;54.40;;;18.62;43.24;98138.97;5029111;28;20053;-43
2023/10/09 02:44:40;;;;;;;14.60;5.15;;;16.90;55.30;;;18.60;43.06;98136.47;5030618;28;20053;-44
2023/10/09 02:47:17;;;;;;;13.65;5.63;;;16.90;54.30;;;18.58;43.06;98133.16;5004762;28;20053;-45
2023/10/09 02:49:48;;;;;;;15.85;5.22;;;16.80;54.20;;;18.56;43.09;98123.63;5030470;28;20049;-44
2023/10/09 02:52:24;;;;;;;10.98;4.88;;;16.80;54.70;;;18.56;43.23;98126.31;5029472;28;20045;-47
2023/10/09 02:54:59;;;;;;;21.25;5.90;;;16.80;54.90;;;18.54;43.46;98129.19;5029183;28;20424;-43
2023/10/09 02:57:36;;;;;;;10.20;3.80;;;16.80;54.90;;;18.52;43.39;98120.47;5029425;28;20061;-44
2023/10/09 03:00:09;;;;;;;16.67;5.18;;;16.70;54.90;;;18.49;43.54;98119.03;5012749;28;20049;-47
2023/10/09 03:02:39;;;;;;;12.10;4.47;;;16.70;55.30;;;18.48;43.55;98117.34;5030456;28;20045;-46
2023/10/09 03:05:12;;;;;;;15.18;4.57;;;16.70;55.40;;;18.47;43.57;98114.84;5030108;28;20772;-44
2023/10/09 03:07:40;;;;;;;12.63;4.32;;;16.70;55.40;;;18.46;43.49;98107.81;5012827;28;20520;-43
2023/10/09 03:10:09;;;;;;;13.52;6.05;;;16.70;55.40;;;18.46;43.91;98107.81;5029123;28;20094;-45
2023/10/09 03:12:39;;;;;;;13.10;3.90;;;16.70;55.60;;;18.47;43.68;98104.06;5028492;28;20056;-44
2023/10/09 03:15:08;;;;;;;12.48;4.82;;;16.70;55.60;;;18.45;43.69;98098.88;5028718;28;20045;-44
2023/10/09 03:17:36;;;;;;;15.38;5.28;;;16.70;55.30;;;18.47;43.63;98098.69;5028552;28;20402;-42
2023/10/09 03:20:12;;;;;;;12.85;4.70;;;16.80;55.10;;;18.47;43.57;98094.09;5030308;28;20029;-45
2023/10/09 03:22:42;;;;;;;9.57;4.68;;;16.80;55.10;;;18.47;43.74;98095.97;5013627;28;20064;-47
2023/10/09 03:25:13;;;;;;;14.65;4.43;;;16.70;55.40;;;18.48;43.68;98089.56;5028509;28;20053;-44
2023/10/09 03:27:47;;;;;;;16.17;4.45;;;16.70;55.30;;;18.45;43.68;98093.47;5028292;28;20054;-43
2023/10/09 03:30:22;;;;;;;12.25;3.65;;;16.70;55.40;;;18.45;43.16;98095.34;5021421;28;20456;-45
2023/10/09 03:32:52;;;;;;;13.52;4.57;;;16.70;54.70;;;18.46;43.51;98094.34;5028869;28;20034;-48
2023/10/09 03:35:25;;;;;;;10.95;3.53;;;16.80;54.70;;;18.45;43.59;98098.88;5028808;28;20049;-44
2023/10/09 03:38:09;;;;;;;15.15;5.47;;;16.80;54.90;;;18.46;43.55;98088.94;5029569;28;20493;-44
2023/10/09 03:40:44;;;;;;;16.23;4.10;;;16.70;55.00;;;18.46;43.58;98099.72;5031627;28;20042;-45
2023/10/09 03:43:11;;;;;;;15.93;4.88;;;16.80;54.70;;;18.43;43.65;98097.41;5033417;28;20045;-47
2023/10/09 03:45:45;;;;;;;8.77;3.75;;;16.70;55.20;;;18.42;43.72;98096.59;5033405;28;20563;-43
2023/10/09 03:48:20;;;;;;;18.35;4.93;;;16.70;55.30;;;18.40;43.68;98095.97;5033170;28;20045;-45
2023/10/09 03:50:48;;;;;;;12.77;4.20;;;16.70;55.40;;;18.38;43.87;98091.78;5033561;28;20315;-44
2023/10/09 03:53:16;;;;;;;8.25;3.70;;;16.70;55.40;;;18.35;43.41;98087.63;5033285;28;20050;-45
2023/10/09 03:55:43;;;;;;;15.85;4.97;;;16.60;54.80;;;18.35;43.43;98093.03;5033396;28;20060;-44
2023/10/09 03:58:15;;;;;;;11.95;5.22;;;16.70;54.50;;;18.35;43.22;98101.13;5031512;28;20048;-45
2023/10/09 04:00:45;;;;;;;20.00;6.22;;;16.70;54.40;;;18.35;43.18;98095.72;5033374;28;20045;-43
2023/10/09 04:03:15;;;;;;;11.50;3.92;;;16.70;54.10;;;18.34;43.30;98106.69;5025107;28;20056;-43
2023/10/09 04:05:44;;;;;;;13.30;4.93;;;16.60;54.50;;;18.31;43.63;98102.53;5033308;28;20104;-46
2023/10/09 04:08:13;;;;;;;15.85;4.60;;;16.50;55.20;;;18.28;43.71;98097.53;5032886;28;20523;-43
2023/10/09 04:10:50;;;;;;;15.60;5.10;;;16.50;55.50;;;18.25;43.67;98096.09;5032010;28;20049;-44
2023/10/09 04:13:32;;;;;;;12.30;4.25;;;16.50;55.40;;;18.23;43.70;98095.47;5025534;28;20064;-43
2023/10/09 04:16:12;;;;;;;13.38;4.75;;;16.40;55.60;;;18.21;43.93;98099.38;5032872;28;20428;-46
2023/10/09 04:18:44;;;;;;;14.00;5.40;;;16.40;56.00;;;18.20;43.77;98101.22;5032609;28;20045;-44
2023/10/09 04:21:34;;;;;;;13.52;4.80;;;16.40;55.90;;;18.16;43.80;98093.75;5032899;28;20045;-43
2023/10/09 04:26:46;;;;;;;14.57;4.78;;;16.30;56.10;;;18.11;43.90;98105.13;5032729;28;20056;-44
2023/10/09 04:29:26;;;;;;;10.90;3.72;;;16.30;55.90;;;18.10;44.07;98098.91;5032836;28;20074;-44
2023/10/09 04:31:56;;;;;;;14.05;4.35;;;16.30;56.20;;;18.08;44.04;98103.66;5032535;28;20052;-44
2023/10/09 04:36:56;;;;;;;19.50;6.03;;;16.30;56.50;;;18.04;44.24;98094.31;5030892;28;20045;-46
2023/10/09 04:42:19;;;;;;;18.38;4.97;;;16.30;56.60;;;18.05;44.29;98092.47;5032728;28;20065;-45
2023/10/09 04:47:37;;;;;;;12.88;4.75;;;16.20;56.90;;;18.03;44.44;98108.81;5025739;28;20053;-44
2023/10/09 04:50:36;;;;;;;12.15;4.65;;;16.30;57.80;;;18.01;44.85;98092.03;5031195;28;20050;-45
2023/10/09 04:55:57;;;;;;;13.25;5.72;;;16.20;57.80;;;18.00;44.78;98094.91;5032214;28;20536;-44
2023/10/09 04:58:25;;;;;;;14.90;5.18;;;16.20;57.70;;;17.98;44.97;98092.41;5030166;28;20048;-43
2023/10/09 05:03:28;;;;;;;16.45;5.15;;;16.20;57.60;;;17.97;44.65;98090.75;5023302;28;20041;-43
2023/10/09 05:05:59;;;;;;;17.92;4.50;;;16.20;57.00;;;17.96;44.75;98099.84;5031937;28;20045;-44
2023/10/09 05:16:26;;;;;;;12.20;4.53;;;16.30;56.50;;;18.00;44.58;98093.03;5031613;28;20272;-44
2023/10/09 05:18:56;;;;;;;17.98;4.55;;;16.40;56.10;;;18.05;44.44;98092.47;5031541;28;20037;-46
2023/10/09 05:37:34;;;;;;;11.95;5.30;;;16.70;55.60;;;18.27;44.21;98099.41;5023589;28;20041;-44
2023/10/09 05:40:22;;;;;;;10.93;3.67;;;16.70;55.60;;;18.28;44.26;98106.47;5031461;28;20033;-44
2023/10/09 05:42:59;;;;;;;14.05;4.43;;;16.70;55.60;;;18.32;44.20;98103.38;5031328;28;20040;-45
2023/10/09 05:46:07;;;;;;;13.48;5.63;;;16.70;55.70;;;18.34;44.12;98098.59;5023866;28;20052;-43
2023/10/09 06:04:53;;;;;;;11.85;4.03;;;16.70;56.10;;;18.33;44.73;98113.13;5030285;28;20050;-43
2023/10/09 06:07:40;;;;;;;13.32;3.88;;;16.70;56.40;;;18.35;44.65;98116.47;5028922;28;20512;-46
2023/10/09 06:10:18;;;;;;;13.23;5.55;;;16.70;56.50;;;18.37;44.77;98117.09;5030821;28;20045;-45
2023/10/09 06:12:49;;;;;;;13.48;3.72;;;16.80;56.70;;;18.38;44.87;98118.75;5030762;28;20041;-45
2023/10/09 06:18:25;;;;;;;11.98;4.65;;;16.70;56.70;;;18.39;44.81;98128.50;5030412;28;20491;-44
2023/10/09 06:21:08;;;;;;;12.07;4.30;;;16.70;56.80;;;18.39;45.01;98126.63;5029499;28;20593;-47
2023/10/09 06:26:25;;;;;;;18.25;4.88;;;16.70;57.20;;;18.44;44.87;98120.66;5030200;28;20057;-44
2023/10/09 06:31:58;;;;;;;11.93;4.28;;;16.80;56.60;;;18.51;44.60;98124.19;5030540;28;20096;-47
2023/10/09 06:34:32;;;;;;;11.90;4.15;;;16.90;56.10;;;18.55;44.88;98130.03;5029913;28;20046;-45
2023/10/09 06:37:17;;;;;;;11.90;4.18;;;17.00;56.40;;;18.58;44.60;98124.25;5028761;28;20045;-44
2023/10/09 06:45:14;;;;;;;14.75;5.45;;;17.20;55.90;;;18.70;44.72;98139.63;5029282;28;20042;-43
2023/10/09 06:53:28;;;;;;;13.23;5.20;;;17.20;56.70;;;18.77;45.17;98145.06;5030474;28;20045;-43
2023/10/09 06:56:05;;;;;;;11.38;3.75;;;17.20;57.10;;;18.78;45.31;98149.41;5030190;28;20045;-45
2023/10/09 06:58:42;;;;;;;15.57;4.85;;;17.20;57.30;;;18.81;45.13;98150.94;5022188;28;20038;-43
2023/10/09 07:01:19;;;;;;;14.05;5.65;;;17.30;57.40;;;18.84;45.59;98156.75;5030219;28;20052;-41
2023/10/09 07:03:53;;;;;;;13.07;5.10;;;17.30;57.80;;;18.85;45.61;98155.69;5028967;28;20425;-44
2023/10/09 07:06:24;;;;;;;;;;;17.30;57.70;;;18.86;45.47;98151.13;5030647;28;20045;-41
2023/10/09 07:17:00;;;;;;;23.52;5.95;;;17.00;59.60;;;18.78;45.95;98148.59;5032320;28;20045;-41
2023/10/09 07:24:58;;;;;;;18.95;6.15;;;17.00;59.70;;;18.77;46.26;98147.75;5033370;28;20053;-41
2023/10/09 07:27:46;;;;;;;22.70;6.18;;;17.10;59.70;;;18.76;46.44;98143.38;5032579;28;20515;-43
2023/10/09 07:35:47;;;;;;;13.30;5.10;;;17.20;59.50;;;18.90;45.89;98144.28;5024136;28;20060;-44
2023/10/09 07:38:28;;;;;;;18.58;5.60;;;17.40;58.30;;;18.96;45.82;98150.75;5032308;28;20056;-43
2023/10/09 07:41:33;;;;;;;11.80;4.38;;;17.50;58.00;;;19.03;45.78;98151.63;5032737;28;20048;-40
2023/10/09 07:43:47;;;;;;;12.07;4.50;;;17.60;57.50;;;19.11;45.95;98153.28;5026373;28;20532;-41
2023/10/09 07:46:30;;;;;;;14.13;4.43;;;17.70;57.90;;;19.16;46.16;98148.94;5032320;28;20105;-40
2023/10/09 07:49:09;;;;;;;10.98;3.65;;;17.80;58.40;;;19.22;46.20;98150.81;5032057;28;20041;-40
2023/10/09 07:51:38;;;;;;;11.80;4.63;;;17.80;58.50;;;19.27;45.96;98150.25;5024618;28;20045;-43
2023/10/09 07:54:09;;;;;;;11.23;4.00;;;17.90;58.40;;;19.31;45.72;98150.63;5031992;28;20045;-42
2023/10/09 07:56:44;;;;;;;10.25;4.45;;;17.90;57.30;;;19.36;45.51;98148.97;5023867;28;20034;-40
2023/10/09 07:59:17;;;;;;;14.35;5.00;;;18.00;56.70;;;19.42;45.37;98150.03;5031082;28;20100;-41
2023/10/09 08:02:02;;;;;;;16.83;5.15;;;18.10;56.10;;;19.50;44.92;98149.00;5032668;28;20049;-42
2023/10/09 08:04:48;;;;;;;14.27;4.50;;;18.20;55.60;;;19.56;44.67;98149.03;5032267;28;20425;-40
2023/10/09 08:07:19;;;;;;;23.25;4.55;;;18.30;55.10;;;19.63;44.08;98154.41;5029684;28;20053;-42
2023/10/09 08:18:18;;;;;;;18.48;4.72;;;18.80;53.10;;;19.96;43.91;98164.44;5031844;28;20099;-40
2023/10/09 08:26:14;;;;;;;17.25;4.53;;;19.00;52.60;;;20.15;43.68;98162.75;5032221;28;20363;-41
2023/10/09 08:28:46;;;;;;;14.85;4.95;;;19.10;52.50;;;20.21;43.44;98170.00;5024234;28;20056;-40
2023/10/09 08:31:34;;;;;;;16.02;4.57;;;19.20;52.50;;;20.25;43.73;98163.97;5032018;28;20037;-40
2023/10/09 08:34:03;;;;;;;11.98;3.38;;;19.20;52.40;;;20.31;43.31;98166.88;5012012;28;20061;-43
2023/10/09 08:36:36;;;;;;;10.13;4.68;;;19.20;52.40;;;20.35;43.38;98174.34;5031720;28;20037;-54
2023/10/09 08:39:17;;;;;;;12.07;3.75;;;19.20;52.50;;;20.40;43.35;98173.72;5030138;28;20389;-53
2023/10/09 08:41:44;;;;;;;11.43;4.15;;;19.30;52.60;;;20.45;42.57;98172.06;5023639;28;20049;-50
2023/10/09 08:44:15;;;;;;;14.27;4.28;;;19.30;52.10;;;20.49;43.20;98175.19;5031274;28;20045;-53
2023/10/09 08:46:44;;;;;;;10.63;4.68;;;19.40;52.00;;;20.52;42.96;98177.44;5022255;28;20033;-50
2023/10/09 08:49:12;;;;;;;10.70;4.28;;;19.40;52.20;;;20.56;42.91;98172.44;5030253;28;20037;-52
2023/10/09 08:51:42;;;;;;;16.10;3.70;;;19.40;51.70;;;20.60;42.86;98169.13;5029961;28;20429;-54
2023/10/09 08:54:11;;;;;;;15.95;4.63;;;19.50;51.80;;;20.64;42.69;98170.34;5030232;28;20531;-51
2023/10/09 08:56:49;;;;;;;16.33;4.43;;;19.60;51.50;;;20.70;42.20;98178.66;5029937;28;20041;-54
2023/10/09 08:59:18;;;;;;;10.85;4.00;;;19.50;51.40;;;20.75;42.52;98171.56;5030471;28;20046;-54
2023/10/09 09:01:51;;;;;;;17.48;4.70;;;19.60;52.70;;;20.80;44.20;98176.31;5031391;28;20033;-51
2023/10/09 09:04:41;;;;;;;33.30;8.20;;;19.60;54.50;;;20.80;45.11;98176.31;5031058;28;20050;-55
2023/10/09 09:07:31;;;;;;;30.13;7.65;;;19.60;58.00;;;20.82;45.64;98191.31;5029435;28;20432;-53
2023/10/09 09:10:21;;;;;;;30.67;8.48;;;19.60;58.40;;;20.87;45.76;98201.50;5025244;28;20041;-55
2023/10/09 09:13:00;;;;;;;28.45;6.88;;;19.60;57.30;;;20.90;45.93;98211.91;5023354;28;20383;-55
2023/10/09 09:15:28;;;;;;;34.13;6.50;;;19.60;57.40;;;20.92;45.40;98212.53;5029832;28;20504;-50
2023/10/09 09:18:11;;;;;;;12.65;4.07;;;19.70;57.50;;;20.92;43.96;98209.81;5029493;28;20044;-55
2023/10/09 09:20:45;;;;;;;11.40;4.22;;;19.70;52.90;;;20.92;43.07;98209.81;5029979;28;20038;-51
2023/10/09 09:23:13;;;;;;;13.82;4.63;;;19.70;53.10;;;20.95;42.90;98206.66;5030151;28;20060;-53
2023/10/09 09:25:47;;;;;;;21.73;4.22;;;19.70;51.70;;;20.99;42.83;98204.38;5029774;28;20050;-53
2023/10/09 09:28:21;;;;;;;13.90;5.07;;;19.80;51.90;;;21.03;42.84;98203.75;5029570;28;20545;-53
2023/10/09 09:30:53;;;;;;;14.00;5.55;;;19.90;52.20;;;21.07;42.44;98201.41;5021849;28;20049;-50
2023/10/09 09:33:40;;;;;;;14.77;5.07;;;19.90;51.40;;;21.09;42.66;98203.91;5030808;28;20037;-53
2023/10/09 09:36:11;;;;;;;9.82;3.80;;;19.90;51.20;;;21.13;42.35;98197.88;5030370;28;20046;-52
2023/10/09 09:38:47;;;;;;;12.32;4.00;;;20.00;51.60;;;21.17;42.66;98209.91;5029226;28;20065;-51
2023/10/09 09:41:25;;;;;;;21.42;6.65;;;20.00;51.90;;;21.23;42.60;98200.94;5030748;28;20041;-58
2023/10/09 09:44:00;;;;;;;13.43;5.18;;;20.10;51.50;;;21.27;42.06;98198.63;5006836;28;20412;-56
2023/10/09 09:46:35;;;;;;;16.73;5.88;;;20.10;51.00;;;21.31;42.40;98188.19;5030365;28;20047;-57
2023/10/09 09:49:16;;;;;;;15.82;4.47;;;20.20;50.50;;;21.33;42.31;98195.03;5030929;28;20412;-57
2023/10/09 09:51:46;;;;;;;12.60;3.75;;;20.30;50.40;;;21.34;41.74;98193.16;5030272;28;20045;-53
2023/10/09 09:54:17;;;;;;;12.70;4.00;;;20.40;50.00;;;21.46;41.88;98201.44;5031248;28;20462;-53
2023/10/09 09:56:52;;;;;;;10.10;3.67;;;20.60;50.30;;;21.55;41.88;98202.84;5030945;28;20112;-57
2023/10/09 09:59:27;;;;;;;12.30;3.17;;;20.70;49.50;;;21.63;41.77;98205.31;5029717;28;20049;-57
2023/10/09 10:02:06;;;;;;;11.93;3.75;;;20.90;49.10;;;21.73;41.67;98205.66;5021959;28;20045;-55
2023/10/09 10:04:40;;;;;;;11.90;4.38;;;20.90;48.90;;;21.84;41.29;98198.69;5030021;28;20053;-54
2023/10/09 10:07:15;;;;;;;10.35;3.40;;;21.00;48.70;;;21.88;41.19;98199.91;5029174;28;20046;-50
2023/10/09 10:09:44;;;;;;;9.68;3.95;;;21.10;48.30;;;22.01;41.49;98212.53;5014371;28;20050;-48
2023/10/09 10:12:14;;;;;;;14.82;3.28;;;21.10;48.50;;;22.01;41.20;98215.25;5030884;28;20042;-49
2023/10/09 10:14:53;;;;;;;10.50;3.50;;;21.30;48.90;;;22.14;40.99;98211.56;5030918;28;20470;-51
2023/10/09 10:17:21;;;;;;;12.27;3.72;;;21.40;48.30;;;22.19;41.08;98207.16;5030605;28;20045;-48
2023/10/09 10:22:51;;;;;;;15.20;4.45;;;21.50;47.50;;;22.31;40.55;98201.03;5015065;28;20068;-52
2023/10/09 10:25:32;;;;;;;9.98;3.90;;;21.50;47.90;;;22.32;39.85;98203.53;5031062;28;20072;-52
2023/10/09 10:31:08;;;;;;;18.10;4.60;;;21.70;45.60;;;22.41;40.11;98188.63;5024608;28;20394;-55
2023/10/09 10:33:54;;;;;;;12.98;5.15;;;21.70;46.70;;;22.46;39.68;98184.41;5029434;28;20499;-56
2023/10/09 10:36:23;;;;;;;10.93;3.95;;;21.80;45.40;;;22.53;39.62;98180.56;5030526;28;20485;-57
2023/10/09 10:39:20;;;;;;;14.95;3.92;;;21.80;46.20;;;22.53;39.04;98179.75;5022362;28;20045;-57
2023/10/09 10:42:00;;;;;;;12.07;3.90;;;21.90;44.40;;;22.56;39.13;98192.84;5030469;28;20058;-56
2023/10/09 10:44:36;;;;;;;10.98;3.50;;;21.90;44.70;;;22.67;38.73;98200.25;5030429;28;20065;-57
2023/10/09 10:47:22;;;;;;;15.77;4.03;;;21.90;45.00;;;22.58;38.43;98201.59;5030220;28;20413;-54
2023/10/09 10:49:58;;;;;;;9.50;3.65;;;21.90;44.20;;;22.78;38.72;98188.66;5031996;28;20037;-58
2023/10/09 10:52:41;;;;;;;11.40;4.70;;;21.90;45.10;;;22.84;37.79;98205.06;5034949;28;20054;-58
2023/10/09 10:55:18;;;;;;;12.90;4.15;;;22.00;43.50;;;22.75;38.22;98189.09;5028385;28;20041;-55
2023/10/09 10:58:09;;;;;;;7.43;3.65;;;22.10;44.10;;;22.94;38.12;98195.34;5034131;28;20053;-56
2023/10/09 11:04:12;;;;;;;10.60;3.53;;;22.30;43.70;;;22.93;37.66;98192.84;5033627;28;20045;-54
2023/10/09 11:06:14;;;;;;;10.05;4.03;;;22.30;42.50;;;23.04;37.92;98199.44;5030437;28;20062;-56
2023/10/09 11:08:58;;;;;;;11.30;4.70;;;22.40;43.50;;;23.07;37.57;98210.69;5033676;28;20056;-58
2023/10/09 11:11:40;;;;;;;8.10;3.47;;;22.60;42.80;;;23.12;37.77;98208.09;5033528;28;20056;-58
2023/10/09 11:14:14;;;;;;;11.48;4.95;;;22.70;42.90;;;23.30;37.56;98206.41;5027972;28;20045;-58
2023/10/09 11:16:42;;;;;;;11.85;3.60;;;22.70;43.00;;;23.32;37.08;98198.84;5032767;28;20522;-56
2023/10/09 11:19:22;;;;;;;15.63;4.55;;;22.70;42.20;;;23.30;36.69;98188.25;5033975;28;20049;-57
2023/10/09 11:22:24;;;;;;;8.43;2.92;;;22.70;41.70;;;23.39;36.32;98186.84;5032757;28;20042;-55
2023/10/09 11:24:40;;;;;;;13.57;4.70;;;22.60;41.00;;;23.38;36.49;98187.09;5034035;28;20390;-56
2023/10/09 11:27:18;;;;;;;9.70;4.38;;;22.60;41.40;;;23.43;36.20;98187.22;5032462;28;20068;-51
2023/10/09 11:32:25;;;;;;;9.63;3.60;;;22.50;41.50;;;23.36;35.98;98173.72;5033716;28;20053;-56
2023/10/09 11:35:28;;;;;;;13.20;3.72;;;22.50;41.40;;;23.35;35.65;98166.63;5033274;28;20060;-55
2023/10/09 11:37:57;;;;;;;8.38;3.63;;;22.40;39.70;;;23.25;35.18;98160.94;5032213;28;20041;-55
2023/10/09 11:43:54;;;;;;;8.85;4.28;;;22.30;39.50;;;23.25;35.17;98171.78;5047898;28;20056;-54
2023/10/09 11:52:56;;;;;;;14.43;4.20;;;22.40;39.60;;;23.36;34.70;98165.59;5033474;28;20049;-50
2023/10/09 11:54:45;;;;;;;9.40;3.28;;;22.40;39.80;;;23.38;34.82;98160.75;5036594;28;20069;-52
2023/10/09 11:57:12;;;;;;;13.88;4.47;;;22.40;40.00;;;23.31;33.97;98162.72;5028771;28;20095;-52
2023/10/09 11:59:41;;;;;;;8.88;4.03;;;22.40;38.10;;;23.32;33.93;98147.25;5033071;28;20047;-53
2023/10/09 12:02:13;;;;;;;9.40;4.35;;;22.40;38.90;;;23.35;33.76;98144.06;5032193;28;20034;-53
2023/10/09 12:04:43;;;;;;;10.30;4.63;;;22.40;38.40;;;23.35;33.36;98144.06;5033264;28;20049;-52
2023/10/09 12:07:13;;;;;;;11.10;4.53;;;22.40;38.00;;;23.47;33.61;98147.66;5033451;28;20049;-54
2023/10/09 12:09:41;;;;;;;11.07;5.30;;;22.50;38.30;;;23.56;33.40;98143.53;5033575;28;20052;-51
2023/10/09 12:12:09;;;;;;;8.95;4.57;;;22.50;38.10;;;23.59;33.52;98137.66;5032220;28;20405;-52
2023/10/09 12:14:39;;;;;;;9.73;5.20;;;22.60;38.30;;;23.64;33.25;98144.28;5031923;28;20053;-55
2023/10/09 12:17:08;;;;;;;9.13;4.40;;;22.60;37.30;;;23.68;33.05;98138.13;5032961;28;20042;-53
2023/10/09 12:19:38;;;;;;;6.70;4.03;;;22.70;37.90;;;23.67;32.54;98131.03;5025851;28;20053;-55
2023/10/09 12:22:10;;;;;;;14.57;4.60;;;22.70;37.20;;;23.73;32.47;98135.53;5009897;28;20064;-55
2023/10/09 12:24:43;;;;;;;8.73;3.72;;;22.80;37.00;;;23.78;32.66;98127.53;5025583;28;20502;-54
2023/10/09 12:27:11;;;;;;;13.43;4.50;;;22.80;36.70;;;23.81;32.69;98103.66;5033338;28;20045;-54
2023/10/09 12:29:44;;;;;;;8.75;4.05;;;22.80;37.20;;;23.85;32.56;98107.56;5033049;28;20292;-55
2023/10/09 12:32:13;;;;;;;9.02;3.85;;;22.80;37.10;;;23.90;32.11;98126.72;5033185;28;20408;-55
2023/10/09 12:34:42;;;;;;;8.60;4.95;;;22.80;36.50;;;23.92;32.00;98133.59;5031921;28;20045;-54
2023/10/09 12:37:10;;;;;;;14.65;5.10;;;22.90;36.40;;;23.93;31.56;98120.81;5032315;28;20519;-54
2023/10/09 12:39:40;;;;;;;12.07;4.47;;;23.00;35.60;;;23.96;31.67;98118.47;5031852;28;20041;-53
2023/10/09 12:42:08;;;;;;;10.15;5.03;;;23.00;35.80;;;24.00;31.94;98120.69;5025300;28;20041;-54
2023/10/09 12:44:38;;;;;;;9.63;4.90;;;23.00;36.30;;;23.98;31.72;98116.31;5032574;28;20046;-54
2023/10/09 12:47:07;;;;;;;15.00;5.00;;;23.00;34.50;;;24.00;31.73;98123.41;5024844;28;20052;-53
2023/10/09 12:49:38;;;;;;;12.27;4.95;;;23.10;35.90;;;24.05;32.22;98120.81;5031493;28;20049;-52
2023/10/09 12:52:15;;;;;;;12.07;4.65;;;23.10;36.20;;;24.05;32.32;98120.81;5024515;28;20046;-55
2023/10/09 12:54:46;;;;;;;8.95;3.70;;;23.10;36.90;;;24.05;32.33;98113.47;5032578;28;20050;-55
2023/10/09 12:57:14;;;;;;;11.18;4.57;;;23.00;36.60;;;24.10;32.55;98110.06;5026465;28;20053;-54
2023/10/09 12:59:45;;;;;;;11.77;4.05;;;23.10;37.30;;;24.14;33.09;98105.81;5020983;28;20132;-52
2023/10/09 13:02:28;;;;;;;7.05;4.05;;;23.10;38.20;;;24.20;33.55;98101.31;5027586;28;20048;-54
2023/10/09 13:05:00;;;;;;;9.05;4.35;;;23.20;38.80;;;24.23;32.51;98095.38;5027223;28;20049;-55
2023/10/09 13:07:28;;;;;;;11.93;5.07;;;23.20;37.30;;;24.27;32.23;98091.97;5027177;28;20485;-53